< < Back
Terminal Aerodrome Forecast


Current Version              Previous Versions:   1  2  3  4  5  6  7  8  9  

Terminal Aerodrome Forecast

900
FTUS42 KJAX 261800 AAA
TAFJAX
TAF AMD
KJAX 261830Z 2619/2718 05014G24KT P6SM VCSH SCT025 BKN040
      TEMPO 2619/2621 3SM -SHRA BKN025
     FM270000 04007KT P6SM SCT025
     FM270600 VRB02KT P6SM SKC
     FM271400 03008KT P6SM FEW025=

Latest METAR

427
SAUS80 KWBC 271500
MTRJAX
METAR KJAX 271456Z 02009KT 10SM FEW030 29/21 A3002 RMK AO2 SLP166
T02890211 52005


USA.gov is the U.S. government's official web portal to all federal, state and local government web resources and services.